createdAt,value
2018-03-20T00:01:14.531Z,10.67
2018-03-20T00:03:41.948Z,10.17
2018-03-20T00:06:09.343Z,11.53
2018-03-20T00:08:36.907Z,13.67
2018-03-20T00:11:04.303Z,11.40
2018-03-20T00:13:31.707Z,10.57
2018-03-20T00:15:59.115Z,11.23
2018-03-20T00:18:26.559Z,15.53
2018-03-20T00:20:53.973Z,14.33
2018-03-20T00:23:21.364Z,11.43
2018-03-20T00:25:48.919Z,11.13
2018-03-20T00:28:16.326Z,11.23
2018-03-20T00:30:43.719Z,14.23
2018-03-20T00:33:11.232Z,9.97
2018-03-20T00:35:38.622Z,10.07
2018-03-20T00:38:06.014Z,7.47
2018-03-20T00:40:33.419Z,8.60
2018-03-20T00:43:00.824Z,8.13
2018-03-20T00:45:28.228Z,9.33
2018-03-20T00:47:55.918Z,10.40
2018-03-20T00:50:23.315Z,8.90
2018-03-20T00:52:50.699Z,9.00
2018-03-20T00:55:18.127Z,12.70
2018-03-20T00:57:45.513Z,8.87
2018-03-20T01:00:12.927Z,12.27
2018-03-20T01:02:40.323Z,12.73
2018-03-20T01:05:07.727Z,11.63
2018-03-20T01:07:35.123Z,14.30
2018-03-20T01:10:02.535Z,12.93
2018-03-20T01:12:29.926Z,10.57
2018-03-20T01:14:57.319Z,9.67
2018-03-20T01:17:24.743Z,11.20
2018-03-20T01:19:52.141Z,8.43
2018-03-20T01:22:19.540Z,10.50
2018-03-20T01:24:46.966Z,10.77
2018-03-20T01:27:14.355Z,11.93
2018-03-20T01:29:41.767Z,9.17
2018-03-20T01:32:09.163Z,14.53
2018-03-20T01:34:36.554Z,13.50
2018-03-20T01:37:03.967Z,12.53
2018-03-20T01:39:31.380Z,15.67
2018-03-20T01:41:58.771Z,8.67
2018-03-20T01:44:26.173Z,9.30
2018-03-20T01:46:53.555Z,9.90
2018-03-20T01:49:20.959Z,9.83
2018-03-20T01:51:48.354Z,11.07
2018-03-20T01:54:15.753Z,9.43
2018-03-20T01:56:43.138Z,14.90
2018-03-20T01:59:10.535Z,7.87
2018-03-20T02:01:37.940Z,11.90
2018-03-20T02:04:05.336Z,9.20
2018-03-20T02:06:32.716Z,7.40
2018-03-20T02:09:00.116Z,6.97
2018-03-20T02:11:27.507Z,7.93
2018-03-20T02:13:54.915Z,9.27
2018-03-20T02:16:28.084Z,8.63
2018-03-20T02:18:55.498Z,11.63
2018-03-20T02:21:22.878Z,14.97
2018-03-20T02:23:50.295Z,10.67
2018-03-20T02:26:17.675Z,15.47
2018-03-20T02:28:45.082Z,20.17
2018-03-20T02:31:12.483Z,12.13
2018-03-20T02:33:39.882Z,12.50
2018-03-20T02:36:07.287Z,10.97
2018-03-20T02:38:34.684Z,12.97
2018-03-20T02:41:02.084Z,13.77
2018-03-20T02:43:29.485Z,17.23
2018-03-20T02:45:56.885Z,17.43
2018-03-20T02:48:24.285Z,11.47
2018-03-20T02:50:51.676Z,13.43
2018-03-20T02:53:19.431Z,16.03
2018-03-20T02:55:46.831Z,17.13
2018-03-20T02:58:14.227Z,19.23
2018-03-20T03:00:41.641Z,16.37
2018-03-20T03:03:09.031Z,11.80
2018-03-20T03:05:36.444Z,16.77
2018-03-20T03:08:03.829Z,14.90
2018-03-20T03:10:31.221Z,13.50
2018-03-20T03:12:58.637Z,14.47
2018-03-20T03:15:26.019Z,11.97
2018-03-20T03:17:53.622Z,15.70
2018-03-20T03:20:21.013Z,12.70
2018-03-20T03:22:48.394Z,13.93
2018-03-20T03:25:15.803Z,17.83
2018-03-20T03:27:43.191Z,15.50
2018-03-20T03:30:10.599Z,15.03
2018-03-20T03:32:37.998Z,14.30
2018-03-20T03:35:05.378Z,14.07
2018-03-20T03:37:32.796Z,17.57
2018-03-20T03:40:00.192Z,20.07
2018-03-20T03:42:27.609Z,17.83
2018-03-20T03:44:54.994Z,19.33
2018-03-20T03:47:22.391Z,13.67
2018-03-20T03:49:49.800Z,14.57
2018-03-20T03:52:17.483Z,13.40
2018-03-20T03:54:44.902Z,13.60
2018-03-20T03:57:12.287Z,17.67
2018-03-20T03:59:39.696Z,15.90
2018-03-20T04:02:07.311Z,22.27
2018-03-20T04:04:34.710Z,16.30
2018-03-20T04:07:02.108Z,13.03
2018-03-20T04:09:29.516Z,20.10
2018-03-20T04:11:56.906Z,20.00
2018-03-20T04:14:24.426Z,19.87
2018-03-20T04:16:51.815Z,24.37
2018-03-20T04:19:19.216Z,18.87
2018-03-20T04:21:46.627Z,21.33
2018-03-20T04:24:14.006Z,24.93
2018-03-20T04:26:41.454Z,22.37
2018-03-20T04:29:08.832Z,22.20
2018-03-20T04:31:36.246Z,21.17
2018-03-20T04:34:03.640Z,16.73
2018-03-20T04:36:31.045Z,22.37
2018-03-20T04:38:58.439Z,22.43
2018-03-20T04:41:25.831Z,21.70
2018-03-20T04:43:53.240Z,23.90
2018-03-20T04:46:20.651Z,23.53
2018-03-20T04:48:48.054Z,22.97
2018-03-20T04:51:15.462Z,27.30
2018-03-20T04:53:42.862Z,26.13
2018-03-20T04:56:10.268Z,21.70
2018-03-20T04:58:37.770Z,23.97
2018-03-20T05:01:05.163Z,25.63
2018-03-20T05:03:32.567Z,22.53
2018-03-20T05:06:00.129Z,24.80
2018-03-20T05:08:27.526Z,17.47
2018-03-20T05:10:54.920Z,17.97
2018-03-20T05:13:22.331Z,23.80
2018-03-20T05:15:49.726Z,29.97
2018-03-20T05:18:17.122Z,24.03
2018-03-20T05:20:50.102Z,21.63
2018-03-20T05:23:22.456Z,22.10
2018-03-20T05:25:50.007Z,24.63
2018-03-20T05:28:17.403Z,27.80
2018-03-20T05:30:44.812Z,24.17
2018-03-20T05:33:12.216Z,31.03
2018-03-20T05:35:39.633Z,20.40
2018-03-20T05:38:07.027Z,19.93
2018-03-20T05:40:34.426Z,25.00
2018-03-20T05:43:02.100Z,26.53
2018-03-20T05:45:29.491Z,34.87
2018-03-20T05:48:02.596Z,35.90
2018-03-20T05:50:35.691Z,29.63
2018-03-20T05:53:03.475Z,24.37
2018-03-20T05:55:30.876Z,27.80
2018-03-20T05:57:58.267Z,37.07
2018-03-20T06:00:25.684Z,28.23
2018-03-20T06:02:53.193Z,26.23
2018-03-20T06:05:20.587Z,28.73
2018-03-20T06:07:47.982Z,26.43
2018-03-20T06:10:15.404Z,19.37
2018-03-20T06:12:42.802Z,26.10
2018-03-20T06:15:10.192Z,28.87
2018-03-20T06:17:37.623Z,24.87
2018-03-20T06:20:05.017Z,28.40
2018-03-20T06:22:32.431Z,30.03
2018-03-20T06:24:59.823Z,25.10
2018-03-20T06:27:27.234Z,26.97
2018-03-20T06:29:54.899Z,21.83
2018-03-20T06:32:22.297Z,27.07
2018-03-20T06:34:49.695Z,27.23
2018-03-20T06:37:17.116Z,22.10
2018-03-20T06:39:44.527Z,21.67
2018-03-20T06:42:11.941Z,29.10
2018-03-20T06:44:39.339Z,27.07
2018-03-20T06:47:06.763Z,25.17
2018-03-20T06:49:34.159Z,27.60
2018-03-20T06:52:01.624Z,30.93
2018-03-20T06:54:29.043Z,35.63
2018-03-20T06:56:56.441Z,28.13
2018-03-20T06:59:23.852Z,25.60
2018-03-20T07:01:51.247Z,29.73
2018-03-20T07:04:18.655Z,26.87
2018-03-20T07:06:46.072Z,27.30
2018-03-20T07:09:13.501Z,25.20
2018-03-20T07:11:40.892Z,28.23
2018-03-20T07:14:08.287Z,25.00
2018-03-20T07:16:35.690Z,26.00
2018-03-20T07:19:03.083Z,24.67
2018-03-20T07:21:30.497Z,30.47
2018-03-20T07:23:57.895Z,26.10
2018-03-20T07:26:25.652Z,28.37
2018-03-20T07:28:53.054Z,23.27
2018-03-20T07:31:20.447Z,17.40
2018-03-20T07:33:47.842Z,17.43
2018-03-20T07:36:15.255Z,15.33
2018-03-20T07:38:42.643Z,16.27
2018-03-20T07:41:10.047Z,17.33
2018-03-20T07:43:37.626Z,14.50
2018-03-20T07:46:05.340Z,11.77
2018-03-20T07:48:32.740Z,14.03
2018-03-20T07:51:00.181Z,14.27
2018-03-20T07:53:27.584Z,8.07
2018-03-20T07:55:54.977Z,11.13
2018-03-20T07:58:22.396Z,11.70
2018-03-20T08:00:49.929Z,14.60
2018-03-20T08:03:17.333Z,10.83
2018-03-20T08:05:44.708Z,12.43
2018-03-20T08:08:12.106Z,9.10
2018-03-20T08:10:39.503Z,8.80
2018-03-20T08:13:06.910Z,6.50
2018-03-20T08:15:34.306Z,11.13
2018-03-20T08:18:01.711Z,8.87
2018-03-20T08:20:29.120Z,7.20
2018-03-20T08:22:56.516Z,6.17
2018-03-20T08:25:23.923Z,8.47
2018-03-20T08:27:51.311Z,10.80
2018-03-20T08:30:18.716Z,9.77
2018-03-20T08:32:46.091Z,6.30
2018-03-20T08:35:13.503Z,8.20
2018-03-20T08:37:40.891Z,6.10
2018-03-20T08:40:08.548Z,7.40
2018-03-20T08:42:35.928Z,5.73
2018-03-20T08:45:03.315Z,7.17
2018-03-20T08:47:30.742Z,6.07
2018-03-20T08:49:58.177Z,5.73
2018-03-20T08:52:25.803Z,7.00
2018-03-20T08:54:53.188Z,7.37
2018-03-20T08:57:20.583Z,7.90
2018-03-20T08:59:47.981Z,9.00
2018-03-20T09:02:15.372Z,6.17
2018-03-20T09:04:42.775Z,7.97
2018-03-20T09:07:10.164Z,6.77
2018-03-20T09:09:37.578Z,6.27
2018-03-20T09:12:04.965Z,8.30
2018-03-20T09:14:32.371Z,5.70
2018-03-20T09:16:59.765Z,7.27
2018-03-20T09:19:27.168Z,11.00
2018-03-20T09:21:54.584Z,7.27
2018-03-20T09:24:21.971Z,7.53
2018-03-20T09:26:49.375Z,7.30
2018-03-20T09:29:16.756Z,8.00
2018-03-20T09:31:44.200Z,13.47
2018-03-20T09:34:11.566Z,9.27
2018-03-20T09:36:38.955Z,5.70
2018-03-20T09:39:06.504Z,7.20
2018-03-20T09:41:33.882Z,6.17
2018-03-20T09:44:01.343Z,6.70
2018-03-20T09:46:28.731Z,6.33
2018-03-20T09:48:56.124Z,6.70
2018-03-20T09:51:23.524Z,5.47
2018-03-20T09:53:50.915Z,7.53
2018-03-20T09:56:18.319Z,5.77
2018-03-20T09:58:45.719Z,14.27
2018-03-20T10:01:13.139Z,6.67
2018-03-20T10:03:40.533Z,6.97
2018-03-20T10:06:07.987Z,11.70
2018-03-20T10:08:35.320Z,8.67
2018-03-20T10:11:02.723Z,10.37
2018-03-20T10:13:30.119Z,6.13
2018-03-20T10:15:57.509Z,6.27
2018-03-20T10:18:24.948Z,7.03
2018-03-20T10:20:52.440Z,4.90
2018-03-20T10:23:19.819Z,6.27
2018-03-20T10:25:47.223Z,5.33
2018-03-20T10:28:14.624Z,5.07
2018-03-20T10:30:42.025Z,8.43
2018-03-20T10:33:09.420Z,5.30
2018-03-20T10:35:36.816Z,7.93
2018-03-20T10:38:04.216Z,4.23
2018-03-20T10:40:31.607Z,6.80
2018-03-20T10:42:59.075Z,10.03
2018-03-20T10:45:26.472Z,6.00
2018-03-20T10:47:53.871Z,3.17
2018-03-20T10:50:21.262Z,4.03
2018-03-20T10:52:48.672Z,10.80
2018-03-20T10:55:16.073Z,3.43
2018-03-20T10:57:43.463Z,5.73
2018-03-20T11:00:10.889Z,3.83
2018-03-20T11:02:43.951Z,3.97
2018-03-20T11:05:11.361Z,4.83
2018-03-20T11:07:38.797Z,5.97
2018-03-20T11:10:06.199Z,6.00
2018-03-20T11:12:33.605Z,7.47
2018-03-20T11:15:01.024Z,5.87
2018-03-20T11:17:28.430Z,7.90
2018-03-20T11:19:55.843Z,3.67
2018-03-20T11:22:23.379Z,5.00
2018-03-20T11:24:50.771Z,5.40
2018-03-20T11:27:18.270Z,4.77
2018-03-20T11:29:45.672Z,3.10
2018-03-20T11:32:13.212Z,3.27
2018-03-20T11:34:40.666Z,6.27
2018-03-20T11:37:08.078Z,3.57
2018-03-20T11:39:35.508Z,4.93
2018-03-20T11:42:02.854Z,6.87
2018-03-20T11:44:30.239Z,5.63
2018-03-20T11:46:57.647Z,6.03
2018-03-20T11:49:25.036Z,3.83
2018-03-20T11:51:52.426Z,11.87
2018-03-20T11:54:19.856Z,4.87
2018-03-20T11:56:47.244Z,6.17
2018-03-20T11:59:14.661Z,3.60
2018-03-20T12:01:42.051Z,3.60
2018-03-20T12:04:09.446Z,3.13
2018-03-20T12:06:36.868Z,2.90
2018-03-20T12:12:10.817Z,4.30
2018-03-20T12:14:38.212Z,7.27
2018-03-20T12:17:05.602Z,2.43
2018-03-20T12:19:33.000Z,3.03
2018-03-20T12:22:00.384Z,4.00
2018-03-20T12:24:28.107Z,5.47
2018-03-20T12:26:55.512Z,2.77
2018-03-20T12:29:22.924Z,3.17
2018-03-20T12:31:50.392Z,4.20
2018-03-20T12:34:18.172Z,4.70
2018-03-20T12:36:45.571Z,4.13
2018-03-20T12:39:12.968Z,3.57
2018-03-20T12:41:40.391Z,3.03
2018-03-20T12:44:07.784Z,6.07
2018-03-20T12:46:35.211Z,4.23
2018-03-20T12:49:02.585Z,3.73
2018-03-20T12:51:29.980Z,2.73
2018-03-20T12:53:57.372Z,3.90
2018-03-20T12:56:24.776Z,2.50
2018-03-20T12:58:52.200Z,4.90
2018-03-20T13:01:19.631Z,5.57
2018-03-20T13:03:47.045Z,1.97
2018-03-20T13:06:14.467Z,3.20
2018-03-20T13:08:41.942Z,4.23
2018-03-20T13:11:09.331Z,4.07
2018-03-20T13:13:36.716Z,4.47
2018-03-20T13:16:04.117Z,2.23
2018-03-20T13:18:31.504Z,3.90
2018-03-20T13:20:58.919Z,6.27
2018-03-20T13:23:26.407Z,2.63
2018-03-20T13:25:53.883Z,2.10
2018-03-20T13:28:21.269Z,2.60
2018-03-20T13:31:00.707Z,3.77
2018-03-20T13:33:28.216Z,8.00
2018-03-20T13:35:55.964Z,5.77
2018-03-20T13:38:23.354Z,3.27
2018-03-20T13:40:50.758Z,2.93
2018-03-20T13:43:18.568Z,3.03
2018-03-20T13:45:45.947Z,6.80
2018-03-20T13:48:13.327Z,3.87
2018-03-20T13:50:40.739Z,4.60
2018-03-20T13:53:08.133Z,5.73
2018-03-20T13:55:35.535Z,9.97
2018-03-20T13:58:02.949Z,3.03
2018-03-20T14:00:30.363Z,7.70
2018-03-20T14:02:57.776Z,5.93
2018-03-20T14:05:25.178Z,4.20
2018-03-20T14:07:52.598Z,3.07
2018-03-20T14:10:19.986Z,4.37
2018-03-20T14:12:47.398Z,4.87
2018-03-20T14:15:14.858Z,4.87
2018-03-20T14:17:43.463Z,3.87
2018-03-20T14:20:12.508Z,6.40
2018-03-20T14:22:39.922Z,5.30
2018-03-20T14:25:07.320Z,3.17
2018-03-20T14:27:34.727Z,8.43
2018-03-20T14:30:02.146Z,4.67
2018-03-20T14:32:29.536Z,3.43
2018-03-20T14:34:56.938Z,5.83
2018-03-20T14:37:24.321Z,4.87
2018-03-20T14:39:51.736Z,3.20
2018-03-20T14:42:19.124Z,2.57
2018-03-20T14:44:46.561Z,6.17
2018-03-20T14:47:13.948Z,8.03
2018-03-20T14:49:41.359Z,3.47
2018-03-20T14:52:08.759Z,6.17
2018-03-20T14:54:36.154Z,4.40
2018-03-20T14:57:03.577Z,3.70
2018-03-20T14:59:30.966Z,4.57
2018-03-20T15:01:58.369Z,6.27
2018-03-20T15:04:25.778Z,8.70
2018-03-20T15:06:53.247Z,3.43
2018-03-20T15:09:20.645Z,4.83
2018-03-20T15:11:48.028Z,2.90
2018-03-20T15:14:15.431Z,5.23
2018-03-20T15:16:42.819Z,6.67
2018-03-20T15:19:10.223Z,4.23
2018-03-20T15:21:37.611Z,4.67
2018-03-20T15:24:05.024Z,5.13
2018-03-20T15:26:32.403Z,5.00
2018-03-20T15:28:59.807Z,3.47
2018-03-20T15:31:27.207Z,4.57
2018-03-20T15:33:54.619Z,5.53
2018-03-20T15:36:22.018Z,4.00
2018-03-20T15:38:50.403Z,3.63
2018-03-20T15:41:17.809Z,3.73
2018-03-20T15:43:45.484Z,5.60
2018-03-20T15:46:12.884Z,5.17
2018-03-20T15:48:40.275Z,4.23
2018-03-20T15:51:07.904Z,6.00
2018-03-20T15:53:35.288Z,3.63
2018-03-20T15:56:02.688Z,5.30
2018-03-20T15:58:30.110Z,3.43
2018-03-20T16:00:57.555Z,5.17
2018-03-20T16:03:24.947Z,5.03
2018-03-20T16:05:52.355Z,4.07
2018-03-20T16:08:19.799Z,3.93
2018-03-20T16:10:47.181Z,5.67
2018-03-20T16:13:15.008Z,5.27
2018-03-20T16:15:42.619Z,3.90
2018-03-20T16:18:11.067Z,6.87
2018-03-20T16:20:38.728Z,3.17
2018-03-20T16:23:06.379Z,4.80
2018-03-20T16:25:34.056Z,5.73
2018-03-20T16:28:01.736Z,6.60
2018-03-20T16:30:29.417Z,3.73
2018-03-20T16:32:57.068Z,4.97
2018-03-20T16:35:24.757Z,10.33
2018-03-20T16:37:52.385Z,5.93
2018-03-20T16:40:20.285Z,4.23
2018-03-20T16:42:48.080Z,4.57
2018-03-20T16:45:15.732Z,4.90
2018-03-20T16:47:43.440Z,4.37
2018-03-20T16:50:11.031Z,4.10
2018-03-20T16:52:38.795Z,5.23
2018-03-20T16:55:06.446Z,4.67
2018-03-20T16:57:34.082Z,4.83
2018-03-20T17:00:01.755Z,4.23
2018-03-20T17:02:29.634Z,6.00
2018-03-20T17:04:57.267Z,4.27
2018-03-20T17:07:24.866Z,3.63
2018-03-20T17:09:52.530Z,4.03
2018-03-20T17:12:20.185Z,4.87
2018-03-20T17:14:47.892Z,6.63
2018-03-20T17:17:15.619Z,5.93
2018-03-20T17:19:43.331Z,4.93
2018-03-20T17:22:10.942Z,4.60
2018-03-20T17:24:38.883Z,4.80
2018-03-20T17:27:06.537Z,3.83
2018-03-20T17:29:34.140Z,5.30
2018-03-20T17:32:01.818Z,4.27
2018-03-20T17:34:29.482Z,5.40
2018-03-20T17:36:57.182Z,5.27
2018-03-20T17:39:24.810Z,3.97
2018-03-20T17:41:52.549Z,5.03
2018-03-20T17:44:20.720Z,3.57
2018-03-20T17:46:48.366Z,17.13
2018-03-20T17:49:16.255Z,3.63
2018-03-20T17:51:44.007Z,6.17
2018-03-20T17:54:11.775Z,6.83
2018-03-20T17:56:39.214Z,5.10
2018-03-20T17:59:06.620Z,6.23
2018-03-20T18:01:34.025Z,4.40
2018-03-20T18:04:01.451Z,6.97
2018-03-20T18:06:28.897Z,4.73
2018-03-20T18:08:56.271Z,4.97
2018-03-20T18:11:23.674Z,7.00
2018-03-20T18:13:51.114Z,6.87
2018-03-20T18:16:18.503Z,6.80
2018-03-20T18:18:45.948Z,9.37
2018-03-20T18:21:13.342Z,6.93
2018-03-20T18:23:40.897Z,8.87
2018-03-20T18:26:08.305Z,6.63
2018-03-20T18:28:35.736Z,7.57
2018-03-20T18:31:03.214Z,5.53
2018-03-20T18:33:30.623Z,11.73
2018-03-20T18:35:58.047Z,9.73
2018-03-20T18:38:25.443Z,8.37
2018-03-20T18:40:52.856Z,8.17
2018-03-20T18:43:20.256Z,6.57
2018-03-20T18:45:47.671Z,6.87
2018-03-20T18:48:15.056Z,6.77
2018-03-20T18:50:42.469Z,5.97
2018-03-20T18:53:09.860Z,5.47
2018-03-20T18:55:37.268Z,12.87
2018-03-20T18:58:04.671Z,6.20
2018-03-20T19:00:32.056Z,5.73
2018-03-20T19:02:59.450Z,5.27
2018-03-20T19:05:26.871Z,7.73
2018-03-20T19:07:54.266Z,8.23
2018-03-20T19:10:21.680Z,10.03
2018-03-20T19:12:49.079Z,8.07
2018-03-20T19:15:16.523Z,7.83
2018-03-20T19:17:44.209Z,10.30
2018-03-20T19:20:11.635Z,8.13
2018-03-20T19:22:39.020Z,10.20
2018-03-20T19:25:06.436Z,9.83
2018-03-20T19:27:33.850Z,9.63
2018-03-20T19:30:01.531Z,8.90
2018-03-20T19:32:28.946Z,10.40
2018-03-20T19:34:56.331Z,6.90
2018-03-20T19:37:23.743Z,6.77
2018-03-20T19:39:51.141Z,7.10
2018-03-20T19:42:18.541Z,7.40
2018-03-20T19:44:46.103Z,4.90
2018-03-20T19:47:13.630Z,8.53
2018-03-20T19:49:41.044Z,7.60
2018-03-20T19:52:08.540Z,5.17
2018-03-20T19:54:35.941Z,9.23
2018-03-20T19:57:03.472Z,7.17
2018-03-20T19:59:30.868Z,8.47
2018-03-20T20:01:58.256Z,8.70
2018-03-20T20:04:25.785Z,8.70
2018-03-20T20:06:53.174Z,9.53
2018-03-20T20:09:20.582Z,10.00
2018-03-20T20:11:47.982Z,8.57
2018-03-20T20:14:15.418Z,9.17
2018-03-20T20:16:42.774Z,8.90
2018-03-20T20:19:10.163Z,8.27
2018-03-20T20:21:37.591Z,7.17
2018-03-20T20:24:04.992Z,11.00
2018-03-20T20:26:32.540Z,9.77
2018-03-20T20:28:59.932Z,6.60
2018-03-20T20:31:27.327Z,9.73
2018-03-20T20:33:54.739Z,7.80
2018-03-20T20:36:22.180Z,6.93
2018-03-20T20:38:49.606Z,10.80
2018-03-20T20:41:17.043Z,10.70
2018-03-20T20:43:44.476Z,8.00
2018-03-20T20:46:11.984Z,8.30
2018-03-20T20:48:39.391Z,11.30
2018-03-20T20:51:06.784Z,7.00
2018-03-20T20:53:34.204Z,13.27
2018-03-20T20:56:01.596Z,7.80
2018-03-20T20:58:29.018Z,11.00
2018-03-20T21:00:56.404Z,7.77
2018-03-20T21:03:23.796Z,7.13
2018-03-20T21:05:51.243Z,7.70
2018-03-20T21:08:18.667Z,8.10
2018-03-20T21:10:46.136Z,9.80
2018-03-20T21:13:13.552Z,7.63
2018-03-20T21:15:40.983Z,7.60
2018-03-20T21:18:08.731Z,10.00
2018-03-20T21:20:36.118Z,8.03
2018-03-20T21:23:03.520Z,9.00
2018-03-20T21:25:30.920Z,8.47
2018-03-20T21:27:58.425Z,7.03
2018-03-20T21:30:25.757Z,6.93
2018-03-20T21:32:53.168Z,9.67
2018-03-20T21:35:21.010Z,9.87
2018-03-20T21:37:48.406Z,8.07
2018-03-20T21:40:15.831Z,15.47
2018-03-20T21:42:43.263Z,12.50
2018-03-20T21:45:10.691Z,11.27
2018-03-20T21:47:38.091Z,11.50
2018-03-20T21:50:05.506Z,8.43
2018-03-20T21:52:32.919Z,10.67
2018-03-20T21:55:00.324Z,10.10
2018-03-20T21:57:27.723Z,12.30
2018-03-20T21:59:55.140Z,11.23
2018-03-20T22:02:22.630Z,7.00
2018-03-20T22:04:50.113Z,5.83
2018-03-20T22:07:17.538Z,9.30
2018-03-20T22:09:44.965Z,6.67
2018-03-20T22:12:12.392Z,8.23
2018-03-20T22:14:39.812Z,8.13
2018-03-20T22:17:07.290Z,11.97
2018-03-20T22:19:34.732Z,9.93
2018-03-20T22:22:02.133Z,9.93
2018-03-20T22:24:29.535Z,7.07
2018-03-20T22:26:56.940Z,9.87
2018-03-20T22:29:24.405Z,8.00
2018-03-20T22:31:51.836Z,6.00
2018-03-20T22:34:19.263Z,9.83
2018-03-20T22:36:46.656Z,11.57
2018-03-20T22:39:14.094Z,6.93
2018-03-20T22:41:41.608Z,8.83
2018-03-20T22:44:08.939Z,8.10
2018-03-20T22:46:36.660Z,7.13
2018-03-20T22:49:04.095Z,8.40
2018-03-20T22:51:31.477Z,6.97
2018-03-20T22:53:58.883Z,6.20
2018-03-20T22:56:26.292Z,5.13
2018-03-20T22:58:53.701Z,6.67
2018-03-20T23:01:21.123Z,6.93
2018-03-20T23:03:48.548Z,6.83
2018-03-20T23:06:16.005Z,6.90
2018-03-20T23:08:43.472Z,4.50
2018-03-20T23:11:10.872Z,9.37
2018-03-20T23:13:38.280Z,8.33
2018-03-20T23:16:05.698Z,10.00
2018-03-20T23:18:33.091Z,10.40
2018-03-20T23:21:00.652Z,13.63
2018-03-20T23:23:28.059Z,13.13
2018-03-20T23:25:55.459Z,10.20
2018-03-20T23:28:22.872Z,6.23
2018-03-20T23:30:50.275Z,13.57
2018-03-20T23:33:17.705Z,10.33
2018-03-20T23:35:45.087Z,8.00
2018-03-20T23:38:12.500Z,8.17
2018-03-20T23:40:39.898Z,5.43
2018-03-20T23:43:07.656Z,5.30
2018-03-20T23:45:39.672Z,5.63
2018-03-20T23:48:07.080Z,6.00
2018-03-20T23:50:34.772Z,5.37
2018-03-20T23:53:02.164Z,4.53
2018-03-20T23:55:29.571Z,6.20
2018-03-20T23:57:56.967Z,5.90
